Hickory Creek, Texas
Current Conditions -  °F | °C
As of 3:53 PM on Friday 31 Oct 2014 (Local Time) from KDTO Reporting Station
Clear Clear  
Wind Chill: 65°   Ceiling: Unl
Heat Index: 65°   Visibility: 10mi
Dew Point: 38°   Wind: 17mph
Humidity: 37%   Direction: 20°NNE
Pressure: 30.3"   Gusts: 23mph
Location:  33.1173°N, 97.0163°W
Report Text: KDTO 312053Z 02015G20KT 10SM CLR 18/03 A3030 RMK AO2 SLP258 T01830033 56015
Loading
Personal Weather Stations






























Interactive Weather Map
Tropical Storm Tracking
New forecast layout! Learn more

10-Day Weather Forecast

Advertisements
Track Severe Weather on mobile